createdAt,value
2018-07-21T00:01:16.245Z,100586.79
2018-07-21T00:03:45.380Z,100589.85
2018-07-21T00:06:14.538Z,100589.41
2018-07-21T00:08:43.701Z,100589.37
2018-07-21T00:11:13.006Z,100582.34
2018-07-21T00:13:42.401Z,100578.41
2018-07-21T00:16:11.703Z,100579.31
2018-07-21T00:18:40.842Z,100585.02
2018-07-21T00:21:09.983Z,100591.62
2018-07-21T00:23:39.146Z,100586.39
2018-07-21T00:26:08.274Z,100590.41
2018-07-21T00:28:37.398Z,100590.92
2018-07-21T00:31:06.562Z,100583.03
2018-07-21T00:33:36.288Z,100593.15
2018-07-21T00:36:05.505Z,100588.79
2018-07-21T00:38:34.656Z,100592.33
2018-07-21T00:41:03.802Z,100591.01
2018-07-21T00:43:32.967Z,100589.72
2018-07-21T00:46:02.091Z,100588.88
2018-07-21T00:48:31.259Z,100586.70
2018-07-21T00:51:00.386Z,100584.97
2018-07-21T00:53:33.506Z,100584.12
2018-07-21T00:56:03.575Z,100593.00
2018-07-21T00:58:32.872Z,100593.00
2018-07-21T01:01:02.255Z,100583.25
2018-07-21T01:03:31.410Z,100581.93
2018-07-21T01:06:00.516Z,100578.84
2018-07-21T01:08:29.773Z,100578.39
2018-07-21T01:10:58.950Z,100577.97
2018-07-21T01:13:28.417Z,100574.06
2018-07-21T01:15:57.550Z,100574.98
2018-07-21T01:18:26.718Z,100574.59
2018-07-21T01:20:55.970Z,100567.15
2018-07-21T01:23:25.147Z,100562.37
2018-07-21T01:25:54.330Z,100564.59
2018-07-21T01:28:23.498Z,100555.01
2018-07-21T01:30:52.665Z,100553.72
2018-07-21T01:33:21.762Z,100555.91
2018-07-21T01:35:50.911Z,100548.91
2018-07-21T01:38:20.094Z,100555.56
2018-07-21T01:40:49.230Z,100552.53
2018-07-21T01:43:18.326Z,100552.53
2018-07-21T01:45:47.652Z,100549.06
2018-07-21T01:48:16.741Z,100552.66
2018-07-21T01:50:45.841Z,100547.38
2018-07-21T01:53:15.063Z,100555.77
2018-07-21T01:55:44.170Z,100561.47
2018-07-21T01:58:13.330Z,100564.53
2018-07-21T02:00:42.430Z,100575.09
2018-07-21T02:03:11.631Z,100576.02
2018-07-21T02:05:40.735Z,100577.02
2018-07-21T02:08:09.989Z,100575.42
2018-07-21T02:10:38.976Z,100582.14
2018-07-21T02:13:08.069Z,100583.63
2018-07-21T02:15:37.311Z,100578.10
2018-07-21T02:18:06.504Z,100580.41
2018-07-21T02:20:35.607Z,100583.61
2018-07-21T02:23:04.802Z,100580.14
2018-07-21T02:25:33.920Z,100580.12
2018-07-21T02:28:03.027Z,100580.00
2018-07-21T02:30:32.214Z,100582.13
2018-07-21T02:33:01.352Z,100581.63
2018-07-21T02:35:30.510Z,100581.63
2018-07-21T02:37:59.675Z,100586.48
2018-07-21T02:40:28.810Z,100585.66
2018-07-21T02:42:57.955Z,100583.94
2018-07-21T02:45:27.173Z,100584.91
2018-07-21T02:47:56.336Z,100586.28
2018-07-21T02:50:25.685Z,100590.75
2018-07-21T02:52:54.837Z,100596.13
2018-07-21T02:55:23.967Z,100584.30
2018-07-21T02:57:53.089Z,100586.55
2018-07-21T03:00:22.267Z,100591.81
2018-07-21T03:02:51.413Z,100585.63
2018-07-21T03:05:20.556Z,100587.34
2018-07-21T03:07:49.699Z,100590.77
2018-07-21T03:10:18.843Z,100582.39
2018-07-21T03:12:47.983Z,100581.05
2018-07-21T03:15:17.086Z,100588.91
2018-07-21T03:17:46.231Z,100587.89
2018-07-21T03:20:15.339Z,100585.61
2018-07-21T03:22:44.478Z,100584.66
2018-07-21T03:25:13.669Z,100584.95
2018-07-21T03:27:42.760Z,100579.16
2018-07-21T03:30:11.927Z,100584.28
2018-07-21T03:32:41.042Z,100575.45
2018-07-21T03:35:10.153Z,100584.62
2018-07-21T03:37:39.807Z,100586.67
2018-07-21T03:40:08.902Z,100584.41
2018-07-21T03:42:38.006Z,100578.19
2018-07-21T03:45:07.120Z,100582.89
2018-07-21T03:47:36.264Z,100579.72
2018-07-21T03:50:05.948Z,100578.72
2018-07-21T03:52:35.037Z,100580.80
2018-07-21T03:55:04.251Z,100580.25
2018-07-21T03:57:33.413Z,100577.41
2018-07-21T04:00:02.543Z,100575.46
2018-07-21T04:02:31.690Z,100577.91
2018-07-21T04:05:00.798Z,100570.58
2018-07-21T04:07:30.327Z,100571.63
2018-07-21T04:09:59.447Z,100576.21
2018-07-21T04:12:28.593Z,100572.37
2018-07-21T04:14:57.710Z,100571.53
2018-07-21T04:17:27.699Z,100574.09
2018-07-21T04:19:57.634Z,100579.25
2018-07-21T04:22:27.202Z,100576.37
2018-07-21T04:24:56.754Z,100576.31
2018-07-21T04:27:25.838Z,100575.43
2018-07-21T04:29:55.014Z,100576.88
2018-07-21T04:32:24.131Z,100576.21
2018-07-21T04:34:53.256Z,100572.87
2018-07-21T04:37:22.415Z,100576.06
2018-07-21T04:39:51.533Z,100571.08
2018-07-21T04:42:20.705Z,100572.95
2018-07-21T04:44:49.841Z,100573.48
2018-07-21T04:47:19.015Z,100570.36
2018-07-21T04:49:48.111Z,100565.45
2018-07-21T04:52:17.206Z,100554.81
2018-07-21T04:54:46.519Z,100551.34
2018-07-21T04:57:15.633Z,100552.92
2018-07-21T04:59:44.730Z,100551.21
2018-07-21T05:02:13.876Z,100555.58
2018-07-21T05:04:42.978Z,100554.39
2018-07-21T05:07:12.090Z,100557.08
2018-07-21T05:09:41.228Z,100560.75
2018-07-21T05:12:10.338Z,100564.09
2018-07-21T05:14:39.455Z,100562.05
2018-07-21T05:17:08.567Z,100547.17
2018-07-21T05:19:37.752Z,100558.19
2018-07-21T05:22:07.214Z,100549.05
2018-07-21T05:24:36.338Z,100562.33
2018-07-21T05:27:18.936Z,100558.27
2018-07-21T05:29:48.073Z,100554.36
2018-07-21T05:32:17.210Z,100549.37
2018-07-21T05:34:46.369Z,100551.20
2018-07-21T05:37:15.554Z,100553.89
2018-07-21T05:39:44.697Z,100552.32
2018-07-21T05:42:13.847Z,100546.00
2018-07-21T05:44:42.980Z,100544.07
2018-07-21T05:47:13.150Z,100545.17
2018-07-21T05:49:42.300Z,100534.45
2018-07-21T05:52:11.405Z,100541.23
2018-07-21T05:54:40.611Z,100544.84
2018-07-21T05:57:10.021Z,100546.81
2018-07-21T05:59:39.269Z,100542.67
2018-07-21T06:02:08.676Z,100545.91
2018-07-21T06:04:37.874Z,100550.28
2018-07-21T06:07:06.967Z,100553.56
2018-07-21T06:09:36.177Z,100557.44
2018-07-21T06:12:05.294Z,100553.75
2018-07-21T06:14:34.396Z,100558.31
2018-07-21T06:17:03.613Z,100560.84
2018-07-21T06:19:32.754Z,100564.36
2018-07-21T06:22:01.890Z,100554.61
2018-07-21T06:24:31.040Z,100552.50
2018-07-21T06:27:00.218Z,100554.03
2018-07-21T06:29:29.347Z,100555.20
2018-07-21T06:31:58.509Z,100561.34
2018-07-21T06:34:27.655Z,100558.15
2018-07-21T06:36:56.929Z,100555.21
2018-07-21T06:39:26.100Z,100562.58
2018-07-21T06:41:55.042Z,100559.30
2018-07-21T06:44:24.154Z,100564.53
2018-07-21T06:46:53.297Z,100568.69
2018-07-21T06:49:22.411Z,100567.14
2018-07-21T06:51:51.542Z,100567.41
2018-07-21T06:54:20.731Z,100572.70
2018-07-21T06:56:49.866Z,100569.02
2018-07-21T06:59:18.998Z,100563.20
2018-07-21T07:01:48.779Z,100573.64
2018-07-21T07:04:17.953Z,100566.52
2018-07-21T07:06:47.084Z,100583.22
2018-07-21T07:09:16.217Z,100580.42
2018-07-21T07:11:45.377Z,100580.30
2018-07-21T07:14:14.509Z,100588.44
2018-07-21T07:16:43.658Z,100588.64
2018-07-21T07:19:12.798Z,100590.32
2018-07-21T07:21:42.036Z,100590.96
2018-07-21T07:24:11.643Z,100584.86
2018-07-21T07:26:40.779Z,100592.47
2018-07-21T07:29:09.869Z,100593.94
2018-07-21T07:31:39.345Z,100589.31
2018-07-21T07:34:08.605Z,100593.88
2018-07-21T07:36:37.743Z,100595.38
2018-07-21T07:39:09.333Z,100583.06
2018-07-21T07:41:38.947Z,100580.69
2018-07-21T07:44:08.250Z,100583.95
2018-07-21T07:46:37.481Z,100583.06
2018-07-21T07:49:06.970Z,100582.23
2018-07-21T07:51:36.170Z,100584.69
2018-07-21T07:54:05.366Z,100585.17
2018-07-21T07:56:34.536Z,100587.58
2018-07-21T07:59:03.643Z,100590.14
2018-07-21T08:01:32.817Z,100590.58
2018-07-21T08:04:02.122Z,100589.48
2018-07-21T08:06:31.296Z,100586.67
2018-07-21T08:09:00.457Z,100586.08
2018-07-21T08:11:29.610Z,100596.03
2018-07-21T08:13:58.757Z,100591.33
2018-07-21T08:16:27.885Z,100588.92
2018-07-21T08:18:57.014Z,100577.96
2018-07-21T08:21:26.188Z,100580.84
2018-07-21T08:23:55.810Z,100581.48
2018-07-21T08:26:24.982Z,100583.74
2018-07-21T08:28:54.150Z,100580.58
2018-07-21T08:31:23.301Z,100580.13
2018-07-21T08:33:52.411Z,100582.22
2018-07-21T08:36:21.677Z,100581.86
2018-07-21T08:38:50.843Z,100579.20
2018-07-21T08:41:20.167Z,100572.75
2018-07-21T08:43:49.371Z,100576.08
2018-07-21T08:46:18.727Z,100572.10
2018-07-21T08:48:47.898Z,100568.66
2018-07-21T08:51:17.092Z,100568.38
2018-07-21T08:53:46.254Z,100570.62
2018-07-21T08:56:15.359Z,100565.31
2018-07-21T08:58:44.567Z,100566.20
2018-07-21T09:01:13.713Z,100564.96
2018-07-21T09:03:42.877Z,100561.38
2018-07-21T09:06:12.078Z,100563.75
2018-07-21T09:08:41.241Z,100559.32
2018-07-21T09:11:10.402Z,100549.26
2018-07-21T09:13:40.916Z,100552.70
2018-07-21T09:16:10.086Z,100560.02
2018-07-21T09:18:39.285Z,100559.18
2018-07-21T09:21:08.499Z,100553.16
2018-07-21T09:23:37.634Z,100554.30
2018-07-21T09:26:06.818Z,100551.75
2018-07-21T09:28:36.003Z,100551.74
2018-07-21T09:31:05.194Z,100549.66
2018-07-21T09:33:34.374Z,100546.46
2018-07-21T09:36:03.566Z,100551.23
2018-07-21T09:38:32.735Z,100556.86
2018-07-21T09:41:01.899Z,100552.08
2018-07-21T09:43:31.102Z,100556.92
2018-07-21T09:46:00.303Z,100550.48
2018-07-21T09:48:29.530Z,100545.50
2018-07-21T09:50:58.650Z,100545.39
2018-07-21T09:53:27.835Z,100543.79
2018-07-21T09:55:57.047Z,100546.44
2018-07-21T09:58:26.140Z,100551.33
2018-07-21T10:01:00.575Z,100548.66
2018-07-21T10:03:29.883Z,100548.87
2018-07-21T10:05:59.104Z,100557.08
2018-07-21T10:08:28.278Z,100556.81
2018-07-21T10:10:57.444Z,100555.55
2018-07-21T10:13:26.584Z,100542.37
2018-07-21T10:15:55.928Z,100551.98
2018-07-21T10:18:25.032Z,100553.88
2018-07-21T10:20:54.195Z,100544.12
2018-07-21T10:23:23.408Z,100541.00
2018-07-21T10:25:57.902Z,100544.34
2018-07-21T10:28:32.575Z,100543.14
2018-07-21T10:31:01.753Z,100544.30
2018-07-21T10:33:30.923Z,100545.86
2018-07-21T10:36:00.167Z,100541.91
2018-07-21T10:38:29.258Z,100539.33
2018-07-21T10:40:58.381Z,100540.48
2018-07-21T10:43:27.514Z,100536.95
2018-07-21T10:45:56.649Z,100535.34
2018-07-21T10:48:25.807Z,100528.68
2018-07-21T10:50:55.123Z,100524.15
2018-07-21T10:53:24.305Z,100517.98
2018-07-21T10:55:53.419Z,100525.20
2018-07-21T10:58:22.680Z,100516.57
2018-07-21T11:00:51.792Z,100522.36
2018-07-21T11:03:20.912Z,100526.58
2018-07-21T11:05:50.099Z,100525.27
2018-07-21T11:08:19.251Z,100520.48
2018-07-21T11:10:48.363Z,100518.78
2018-07-21T11:13:17.507Z,100521.67
2018-07-21T11:15:46.669Z,100518.69
2018-07-21T11:18:15.859Z,100518.77
2018-07-21T11:20:45.019Z,100513.27
2018-07-21T11:23:14.759Z,100511.73
2018-07-21T11:25:43.906Z,100512.20
2018-07-21T11:28:13.056Z,100513.98
2018-07-21T11:30:42.159Z,100514.11
2018-07-21T11:33:11.278Z,100515.80
2018-07-21T11:35:40.558Z,100518.40
2018-07-21T11:38:09.591Z,100518.52
2018-07-21T11:40:38.706Z,100513.21
2018-07-21T11:43:07.892Z,100519.08
2018-07-21T11:45:37.031Z,100512.55
2018-07-21T11:48:06.687Z,100515.84
2018-07-21T11:50:35.819Z,100506.97
2018-07-21T11:53:04.971Z,100511.52
2018-07-21T11:55:34.102Z,100499.48
2018-07-21T11:58:03.246Z,100506.09
2018-07-21T12:00:32.356Z,100505.39
2018-07-21T12:03:01.574Z,100507.63
2018-07-21T12:05:30.694Z,100502.02
2018-07-21T12:08:00.034Z,100499.78
2018-07-21T12:10:29.168Z,100501.87
2018-07-21T12:12:58.356Z,100506.04
2018-07-21T12:15:27.464Z,100493.14
2018-07-21T12:17:56.635Z,100503.23
2018-07-21T12:20:25.853Z,100501.34
2018-07-21T12:22:54.878Z,100492.77
2018-07-21T12:25:24.038Z,100494.86
2018-07-21T12:27:53.916Z,100491.80
2018-07-21T12:30:23.035Z,100488.45
2018-07-21T12:32:52.197Z,100490.98
2018-07-21T12:35:21.290Z,100483.66
2018-07-21T12:37:50.413Z,100478.48
2018-07-21T12:40:19.541Z,100474.92
2018-07-21T12:42:48.707Z,100473.00
2018-07-21T12:45:17.830Z,100469.05
2018-07-21T12:47:46.943Z,100464.63
2018-07-21T12:50:16.103Z,100464.66
2018-07-21T12:52:45.236Z,100459.20
2018-07-21T12:55:14.356Z,100465.36
2018-07-21T12:57:43.496Z,100471.27
2018-07-21T13:00:12.589Z,100466.00
2018-07-21T13:02:41.785Z,100471.51
2018-07-21T13:05:10.890Z,100467.00
2018-07-21T13:07:40.006Z,100471.97
2018-07-21T13:10:09.151Z,100466.52
2018-07-21T13:12:38.269Z,100465.47
2018-07-21T13:15:07.750Z,100463.84
2018-07-21T13:17:36.928Z,100459.63
2018-07-21T13:20:06.470Z,100463.95
2018-07-21T13:22:35.674Z,100456.63
2018-07-21T13:25:05.004Z,100461.23
2018-07-21T13:27:34.106Z,100455.56
2018-07-21T13:30:03.234Z,100455.98
2018-07-21T13:32:32.349Z,100452.20
2018-07-21T13:35:02.495Z,100442.40
2018-07-21T13:37:31.603Z,100442.30
2018-07-21T13:40:00.785Z,100435.69
2018-07-21T13:42:29.894Z,100438.51
2018-07-21T13:44:59.050Z,100438.44
2018-07-21T13:47:28.214Z,100430.09
2018-07-21T13:49:57.876Z,100434.06
2018-07-21T13:52:27.006Z,100430.03
2018-07-21T13:54:56.175Z,100430.06
2018-07-21T13:57:25.301Z,100432.05
2018-07-21T13:59:54.418Z,100442.83
2018-07-21T14:02:23.557Z,100438.66
2018-07-21T14:04:52.686Z,100437.11
2018-07-21T14:07:21.839Z,100439.36
2018-07-21T14:09:51.028Z,100431.51
2018-07-21T14:12:20.166Z,100436.65
2018-07-21T14:14:49.300Z,100429.17
2018-07-21T14:17:18.425Z,100430.64
2018-07-21T14:19:47.535Z,100435.98
2018-07-21T14:22:16.663Z,100428.81
2018-07-21T14:24:46.012Z,100430.13
2018-07-21T14:27:15.142Z,100426.38
2018-07-21T14:29:44.384Z,100425.62
2018-07-21T14:32:13.457Z,100429.34
2018-07-21T14:34:42.622Z,100425.05
2018-07-21T14:37:11.735Z,100420.91
2018-07-21T14:39:40.845Z,100425.64
2018-07-21T14:42:10.103Z,100434.98
2018-07-21T14:44:39.215Z,100430.03
2018-07-21T14:47:08.323Z,100425.16
2018-07-21T14:49:37.444Z,100432.53
2018-07-21T14:52:06.578Z,100432.64
2018-07-21T14:54:35.760Z,100431.27
2018-07-21T14:57:04.909Z,100432.29
2018-07-21T14:59:34.052Z,100428.34
2018-07-21T15:02:03.204Z,100429.73
2018-07-21T15:04:32.369Z,100424.08
2018-07-21T15:07:01.534Z,100427.69
2018-07-21T15:09:30.740Z,100435.09
2018-07-21T15:11:59.835Z,100433.96
2018-07-21T15:14:28.777Z,100435.50
2018-07-21T15:16:58.041Z,100429.89
2018-07-21T15:19:27.157Z,100431.02
2018-07-21T15:21:56.287Z,100435.44
2018-07-21T15:24:25.394Z,100427.98
2018-07-21T15:26:54.516Z,100437.65
2018-07-21T15:29:23.552Z,100424.83
2018-07-21T15:31:52.673Z,100437.08
2018-07-21T15:34:21.779Z,100433.72
2018-07-21T15:36:51.014Z,100423.75
2018-07-21T15:39:20.123Z,100426.17
2018-07-21T15:41:49.270Z,100425.05
2018-07-21T15:44:18.385Z,100421.22
2018-07-21T15:46:47.511Z,100428.50
2018-07-21T15:49:16.638Z,100425.54
2018-07-21T15:51:45.943Z,100428.44
2018-07-21T15:54:15.069Z,100422.34
2018-07-21T15:56:45.083Z,100427.13
2018-07-21T15:59:14.263Z,100424.09
2018-07-21T16:01:43.430Z,100427.16
2018-07-21T16:04:12.649Z,100432.08
2018-07-21T16:06:41.798Z,100435.77
2018-07-21T16:09:11.930Z,100436.57
2018-07-21T16:11:41.395Z,100433.72
2018-07-21T16:14:10.518Z,100438.00
2018-07-21T16:16:39.659Z,100431.14
2018-07-21T16:19:08.766Z,100431.34
2018-07-21T16:21:38.037Z,100425.41
2018-07-21T16:24:07.160Z,100428.86
2018-07-21T16:26:36.262Z,100423.81
2018-07-21T16:29:05.693Z,100423.53
2018-07-21T16:31:34.819Z,100424.88
2018-07-21T16:34:03.972Z,100418.07
2018-07-21T16:36:33.756Z,100417.50
2018-07-21T16:39:02.853Z,100410.31
2018-07-21T16:41:32.008Z,100414.24
2018-07-21T16:44:01.127Z,100417.25
2018-07-21T16:46:30.264Z,100414.08
2018-07-21T16:48:59.402Z,100408.75
2018-07-21T16:51:28.528Z,100405.97
2018-07-21T16:53:57.719Z,100409.31
2018-07-21T16:56:26.915Z,100410.88
2018-07-21T16:58:56.074Z,100413.54
2018-07-21T17:01:25.252Z,100408.64
2018-07-21T17:03:54.458Z,100411.52
2018-07-21T17:06:23.625Z,100402.78
2018-07-21T17:08:52.766Z,100409.00
2018-07-21T17:11:21.919Z,100412.43
2018-07-21T17:13:51.078Z,100408.30
2018-07-21T17:16:20.226Z,100408.70
2018-07-21T17:18:49.374Z,100409.66
2018-07-21T17:21:18.512Z,100412.51
2018-07-21T17:23:47.717Z,100404.52
2018-07-21T17:26:16.879Z,100405.84
2018-07-21T17:28:46.023Z,100408.00
2018-07-21T17:31:15.166Z,100410.47
2018-07-21T17:33:44.281Z,100410.84
2018-07-21T17:36:13.455Z,100402.59
2018-07-21T17:38:42.615Z,100406.77
2018-07-21T17:41:11.774Z,100405.22
2018-07-21T17:43:40.949Z,100407.75
2018-07-21T17:46:10.105Z,100407.73
2018-07-21T17:48:39.277Z,100406.64
2018-07-21T17:51:08.405Z,100406.98
2018-07-21T17:53:37.556Z,100403.72
2018-07-21T17:56:06.742Z,100402.23
2018-07-21T17:58:35.971Z,100402.96
2018-07-21T18:01:05.071Z,100402.38
2018-07-21T18:03:34.285Z,100396.24
2018-07-21T18:06:03.482Z,100394.37
2018-07-21T18:08:32.601Z,100397.32
2018-07-21T18:11:01.735Z,100403.86
2018-07-21T18:13:30.871Z,100395.34
2018-07-21T18:16:00.167Z,100391.29
2018-07-21T18:18:29.382Z,100392.55
2018-07-21T18:20:58.566Z,100388.11
2018-07-21T18:23:28.390Z,100392.42
2018-07-21T18:25:57.547Z,100395.60
2018-07-21T18:28:26.728Z,100398.50
2018-07-21T18:30:55.854Z,100393.97
2018-07-21T18:33:25.122Z,100396.09
2018-07-21T18:35:54.270Z,100400.80
2018-07-21T18:38:23.414Z,100405.03
2018-07-21T18:40:52.796Z,100407.14
2018-07-21T18:43:21.956Z,100415.02
2018-07-21T18:45:51.113Z,100402.36
2018-07-21T18:48:21.187Z,100415.45
2018-07-21T18:50:50.414Z,100414.45
2018-07-21T18:53:19.567Z,100412.48
2018-07-21T18:55:48.721Z,100414.50
2018-07-21T18:58:17.906Z,100409.87
2018-07-21T19:00:47.039Z,100412.77
2018-07-21T19:03:16.788Z,100413.63
2018-07-21T19:05:46.035Z,100408.98
2018-07-21T19:08:20.463Z,100414.09
2018-07-21T19:10:49.954Z,100415.82
2018-07-21T19:13:19.153Z,100413.04
2018-07-21T19:15:53.650Z,100415.69
2018-07-21T19:18:22.658Z,100415.57
2018-07-21T19:20:57.177Z,100418.15
2018-07-21T19:23:26.395Z,100418.82
2018-07-21T19:26:00.915Z,100419.59
2018-07-21T19:28:30.218Z,100416.87
2018-07-21T19:30:59.378Z,100416.20
2018-07-21T19:33:28.522Z,100423.56
2018-07-21T19:35:58.464Z,100419.00
2018-07-21T19:38:27.619Z,100429.89
2018-07-21T19:40:56.802Z,100432.22
2018-07-21T19:43:26.098Z,100429.75
2018-07-21T19:45:55.267Z,100428.15
2018-07-21T19:48:24.378Z,100421.66
2018-07-21T19:50:53.576Z,100420.11
2018-07-21T19:53:22.719Z,100423.84
2018-07-21T19:55:52.142Z,100420.94
2018-07-21T19:58:21.623Z,100421.47
2018-07-21T20:00:50.818Z,100419.06
2018-07-21T20:03:19.950Z,100414.79
2018-07-21T20:05:49.117Z,100417.67
2018-07-21T20:08:18.270Z,100419.13
2018-07-21T20:10:47.410Z,100414.40
2018-07-21T20:13:16.530Z,100415.85
2018-07-21T20:15:45.726Z,100423.04
2018-07-21T20:18:14.994Z,100418.73
2018-07-21T20:20:44.198Z,100425.86
2018-07-21T20:23:13.359Z,100417.47
2018-07-21T20:25:42.710Z,100419.66
2018-07-21T20:28:11.959Z,100417.41
2018-07-21T20:30:41.678Z,100420.94
2018-07-21T20:33:10.791Z,100417.47
2018-07-21T20:35:39.928Z,100424.25
2018-07-21T20:38:09.107Z,100437.24
2018-07-21T20:40:38.249Z,100430.80
2018-07-21T20:43:07.978Z,100436.66
2018-07-21T20:45:37.214Z,100438.56
2018-07-21T20:48:06.420Z,100441.34
2018-07-21T20:50:35.828Z,100445.00
2018-07-21T20:53:05.035Z,100444.66
2018-07-21T20:55:34.171Z,100445.21
2018-07-21T20:58:03.715Z,100444.41
2018-07-21T21:00:33.511Z,100448.91
2018-07-21T21:03:02.756Z,100446.25
2018-07-21T21:05:32.011Z,100442.73
2018-07-21T21:08:01.211Z,100451.58
2018-07-21T21:10:30.344Z,100447.19
2018-07-21T21:12:59.499Z,100448.11
2018-07-21T21:15:28.665Z,100456.61
2018-07-21T21:17:57.854Z,100455.41
2018-07-21T21:20:27.031Z,100457.80
2018-07-21T21:22:56.865Z,100462.09
2018-07-21T21:25:26.047Z,100458.67
2018-07-21T21:27:55.397Z,100460.73
2018-07-21T21:30:24.634Z,100466.69
2018-07-21T21:32:53.832Z,100462.86
2018-07-21T21:35:23.031Z,100469.20
2018-07-21T21:37:52.187Z,100466.12
2018-07-21T21:40:21.401Z,100469.72
2018-07-21T21:42:50.772Z,100465.27
2018-07-21T21:45:19.918Z,100461.73
2018-07-21T21:47:49.076Z,100469.31
2018-07-21T21:50:18.303Z,100470.23
2018-07-21T21:52:47.513Z,100472.02
2018-07-21T21:55:16.712Z,100480.41
2018-07-21T21:57:45.848Z,100469.83
2018-07-21T22:00:14.976Z,100480.92
2018-07-21T22:02:44.134Z,100475.61
2018-07-21T22:05:13.278Z,100487.16
2018-07-21T22:07:42.480Z,100494.27
2018-07-21T22:10:11.795Z,100494.27
2018-07-21T22:12:40.989Z,100492.94
2018-07-21T22:15:15.394Z,100490.34
2018-07-21T22:17:45.452Z,100490.36
2018-07-21T22:20:14.605Z,100482.91
2018-07-21T22:22:44.129Z,100495.36
2018-07-21T22:25:13.299Z,100499.86
2018-07-21T22:27:42.466Z,100501.70
2018-07-21T22:30:17.841Z,100501.36
2018-07-21T22:32:46.985Z,100500.95
2018-07-21T22:35:16.139Z,100501.00
2018-07-21T22:37:45.364Z,100505.91
2018-07-21T22:40:14.610Z,100510.41
2018-07-21T22:42:45.335Z,100501.25
2018-07-21T22:45:14.482Z,100504.48
2018-07-21T22:47:45.372Z,100513.83
2018-07-21T22:50:14.590Z,100513.88
2018-07-21T22:52:43.748Z,100508.22
2018-07-21T22:55:13.178Z,100515.78
2018-07-21T22:57:42.511Z,100507.86
2018-07-21T23:00:11.750Z,100508.37
2018-07-21T23:02:41.892Z,100505.39
2018-07-21T23:05:11.686Z,100503.25
2018-07-21T23:07:40.924Z,100500.23
2018-07-21T23:10:10.112Z,100501.16
2018-07-21T23:12:39.264Z,100502.13
2018-07-21T23:15:09.545Z,100507.55
2018-07-21T23:17:38.681Z,100508.88
2018-07-21T23:20:08.881Z,100507.14
2018-07-21T23:22:38.305Z,100501.50
2018-07-21T23:25:07.978Z,100497.16
2018-07-21T23:27:37.160Z,100494.14
2018-07-21T23:30:06.394Z,100492.88
2018-07-21T23:32:35.615Z,100495.98
2018-07-21T23:35:05.261Z,100495.63
2018-07-21T23:37:34.924Z,100491.23
2018-07-21T23:40:04.882Z,100486.44
2018-07-21T23:42:34.987Z,100489.17
2018-07-21T23:45:04.179Z,100497.66
2018-07-21T23:47:33.319Z,100486.67
2018-07-21T23:50:02.438Z,100485.86
2018-07-21T23:52:31.578Z,100488.20
2018-07-21T23:55:07.732Z,100488.25
2018-07-21T23:57:37.305Z,100486.59
